Oak Springs, Arizona
Current Conditions -  °F | °C
As of 11:53 PM on Thursday 27 Nov 2014 (Local Time) from KGUP Reporting Station
Clear Clear  
Wind Chill: 29°   Ceiling: Unl
Heat Index: 29°   Visibility: 10mi
Dew Point: 10°   Wind: 3mph
Humidity: 45%   Direction: 60°ENE
Pressure: 30.36"   Gusts: NA
Location:  35.2918°N, 109.157°W
Report Text: KGUP 280653Z AUTO 06003KT 10SM CLR M02/M12 A3036 RMK AO2 SLP255 T10171122 401721106
Loading
Personal Weather Stations






























Interactive Weather Map New forecast layout! Learn more

10-Day Weather Forecast

Advertisements
Track Severe Weather on mobile